^^
Datos históricos de la estación: Murcia-Puente Tocinos
Diario Informe para Noviembre 6, 2019 Unidades:  Ambas    Ingés   Métrico
Diario Semanal Mensual Anual
  Máxima: Mínima: Promedio:
Temperatura: 69.1 °F /  20.6 °C 55.8 °F /  13.2 °C 61.9 °F /  16.6 °C
Punto de rocio: 42.3 °F /  5.7 °C 37.9 °F /  3.3 °C 40.6 °F /  4.8 °C
Humedad: 60% 32.1% 46%
Velocidad viento: 14mph /  22.5km/h - 6.1mph /  9.8km/h
Racha viento: 25.3mph /  40.7km/h - -
Viento- - OSO
Presión: 30 in /  1014.7 hPa 29.9 in /  1011.7 hPa -
Precipitación: 0 in /  0.0 mm    
 
 
Tabla de datos para Noviembre 6, 2019
Hora Temperatura Punto de rocio Presión Viento Velocidad viento Racha viento Humedad Intensidad lluvia(por hora) Nubes
00:04 57.9 °F /  14.4 °C 41.4 °F /  5.2 °C 29.9in /  1012.9hPa Sur 5.2mph /  8.4km/h 8.1mph /  13km/h 54% 0in /  0.0mm
00:09 57.7 °F /  14.3 °C 41.2 °F /  5.1 °C 29.9in /  1013.0hPa Sur 5.4mph /  8.7km/h 8mph /  12.9km/h 54% 0in /  0.0mm
00:14 57.9 °F /  14.4 °C 41.4 °F /  5.2 °C 29.9in /  1013.0hPa Sur 5.2mph /  8.4km/h 9.2mph /  14.8km/h 54% 0in /  0.0mm
00:19 58.1 °F /  14.5 °C 41.5 °F /  5.3 °C 29.9in /  1013.0hPa Sur 5.2mph /  8.4km/h 6.2mph /  10km/h 54% 0in /  0.0mm
00:24 58.3 °F /  14.6 °C 41.4 °F /  5.2 °C 29.9in /  1013.0hPa SSO 4.5mph /  7.2km/h 6.9mph /  11.1km/h 53.2% 0in /  0.0mm
00:29 58.5 °F /  14.7 °C 41.4 °F /  5.2 °C 29.9in /  1013.0hPa SSO 4.3mph /  6.9km/h 7mph /  11.3km/h 53% 0in /  0.0mm
00:34 58.6 °F /  14.8 °C 41.5 °F /  5.3 °C 29.9in /  1013.0hPa SSO 4.3mph /  6.9km/h 7mph /  11.3km/h 53% 0in /  0.0mm
00:39 58.6 °F /  14.8 °C 41.5 °F /  5.3 °C 29.9in /  1013.0hPa SSO 4.3mph /  6.9km/h 7mph /  11.3km/h 53% 0in /  0.0mm
00:44 58.8 °F /  14.9 °C 41.2 °F /  5.1 °C 29.9in /  1013.0hPa SSO 4.3mph /  6.9km/h 7mph /  11.3km/h 52.1% 0in /  0.0mm
00:49 58.8 °F /  14.9 °C 41.4 °F /  5.2 °C 29.9in /  1013.0hPa SO 4.3mph /  6.9km/h 7mph /  11.3km/h 52% 0in /  0.0mm
00:54 58.8 °F /  14.9 °C 41.2 °F /  5.1 °C 29.9in /  1013.0hPa OSO 3.7mph /  6km/h 6mph /  9.7km/h 52% 0in /  0.0mm
00:59 58.6 °F /  14.8 °C 41.2 °F /  5.1 °C 29.9in /  1013.0hPa SO 3.6mph /  5.8km/h 6.2mph /  10km/h 52.1% 0in /  0.0mm
01:04 58.6 °F /  14.8 °C 41.2 °F /  5.1 °C 29.9in /  1013.0hPa OSO 3.9mph /  6.3km/h 7.4mph /  11.9km/h 52% 0in /  0.0mm
01:09 58.6 °F /  14.8 °C 41.2 °F /  5.1 °C 29.9in /  1013.0hPa OSO 4mph /  6.5km/h 8.5mph /  13.7km/h 52% 0in /  0.0mm
01:14 58.6 °F /  14.8 °C 41.2 °F /  5.1 °C 29.9in /  1012.8hPa SO 5mph /  8km/h 9mph /  14.5km/h 52% 0in /  0.0mm
01:19 58.8 °F /  14.9 °C 41 °F /  5 °C 29.9in /  1012.8hPa SO 5.2mph /  8.4km/h 9mph /  14.5km/h 51.5% 0in /  0.0mm
01:24 59.4 °F /  15.2 °C 41 °F /  5 °C 29.9in /  1012.8hPa OSO 5.3mph /  8.6km/h 8.5mph /  13.7km/h 50.7% 0in /  0.0mm
01:29 59.5 °F /  15.3 °C 41 °F /  5 °C 29.9in /  1012.8hPa OSO 5.4mph /  8.7km/h 9mph /  14.5km/h 50% 0in /  0.0mm
01:34 59.9 °F /  15.5 °C 40.8 °F /  4.9 °C 29.9in /  1012.8hPa OSO 4.8mph /  7.8km/h 8.5mph /  13.7km/h 49.2% 0in /  0.0mm
01:39 60.1 °F /  15.6 °C 41 °F /  5 °C 29.9in /  1012.8hPa Oeste 4.7mph /  7.6km/h 9mph /  14.5km/h 49.4% 0in /  0.0mm
01:44 59.5 °F /  15.3 °C 41 °F /  5 °C 29.9in /  1012.7hPa OSO 4.4mph /  7.1km/h 7mph /  11.3km/h 50.5% 0in /  0.0mm
01:49 58.8 °F /  14.9 °C 41.2 °F /  5.1 °C 29.9in /  1012.7hPa OSO 4.3mph /  6.9km/h 7mph /  11.3km/h 51.7% 0in /  0.0mm
01:54 58.8 °F /  14.9 °C 41.2 °F /  5.1 °C 29.9in /  1012.7hPa SO 4mph /  6.5km/h 7mph /  11.3km/h 52% 0in /  0.0mm
01:59 58.8 °F /  14.9 °C 41 °F /  5 °C 29.9in /  1012.5hPa OSO 4mph /  6.5km/h 6.2mph /  10km/h 51.4% 0in /  0.0mm
02:04 59.2 °F /  15.1 °C 41.4 °F /  5.2 °C 29.9in /  1012.5hPa ONO 3.3mph /  5.3km/h 6mph /  9.7km/h 51.8% 0in /  0.0mm
02:09 58.6 °F /  14.8 °C 41.5 °F /  5.3 °C 29.9in /  1012.8hPa Oeste 3.1mph /  5km/h 5mph /  8km/h 52.8% 0in /  0.0mm
02:14 58.1 °F /  14.5 °C 41.4 °F /  5.2 °C 29.9in /  1012.8hPa OSO 2.5mph /  4.1km/h 6.9mph /  11.1km/h 53.5% 0in /  0.0mm
02:19 57.9 °F /  14.4 °C 41.4 °F /  5.2 °C 29.9in /  1012.8hPa OSO 2.4mph /  3.9km/h 9.7mph /  15.6km/h 54% 0in /  0.0mm
02:24 58.1 °F /  14.5 °C 41 °F /  5 °C 29.9in /  1012.8hPa OSO 4.7mph /  7.6km/h 10mph /  16.1km/h 53.2% 0in /  0.0mm
02:29 57.9 °F /  14.4 °C 41.4 °F /  5.2 °C 29.9in /  1012.6hPa OSO 5.4mph /  8.7km/h 10.4mph /  16.7km/h 53.9% 0in /  0.0mm
02:34 57.7 °F /  14.3 °C 41.2 °F /  5.1 °C 29.9in /  1012.6hPa OSO 6mph /  9.7km/h 10mph /  16.1km/h 54% 0in /  0.0mm
02:39 57.7 °F /  14.3 °C 41.2 °F /  5.1 °C 29.9in /  1012.6hPa SO 6.2mph /  10km/h 10.4mph /  16.7km/h 54% 0in /  0.0mm
02:44 57.9 °F /  14.4 °C 41.4 °F /  5.2 °C 29.9in /  1012.6hPa OSO 6mph /  9.6km/h 10mph /  16.1km/h 54% 0in /  0.0mm
02:49 57.9 °F /  14.4 °C 41.4 °F /  5.2 °C 29.9in /  1012.6hPa OSO 5.9mph /  9.5km/h 9.2mph /  14.8km/h 54% 0in /  0.0mm
02:54 57.9 °F /  14.4 °C 41.4 °F /  5.2 °C 29.9in /  1012.6hPa OSO 5.5mph /  8.9km/h 9mph /  14.5km/h 54% 0in /  0.0mm
02:59 57.7 °F /  14.3 °C 41.5 °F /  5.3 °C 29.9in /  1012.4hPa OSO 5.4mph /  8.7km/h 9mph /  14.5km/h 54.4% 0in /  0.0mm
03:04 57.7 °F /  14.3 °C 41.7 °F /  5.4 °C 29.9in /  1012.4hPa OSO 5.4mph /  8.7km/h 9.2mph /  14.8km/h 55% 0in /  0.0mm
03:09 57.9 °F /  14.4 °C 41.7 °F /  5.4 °C 29.9in /  1012.4hPa OSO 5.4mph /  8.7km/h 9.2mph /  14.8km/h 55% 0in /  0.0mm
03:14 58.1 °F /  14.5 °C 41.7 °F /  5.4 °C 29.9in /  1012.3hPa SO 6mph /  9.7km/h 10.4mph /  16.7km/h 54.6% 0in /  0.0mm
03:19 58.3 °F /  14.6 °C 41.7 °F /  5.4 °C 29.9in /  1012.3hPa SO 6.2mph /  10km/h 10.4mph /  16.7km/h 54% 0in /  0.0mm
03:24 58.5 °F /  14.7 °C 41.9 °F /  5.5 °C 29.9in /  1012.6hPa SO 5.4mph /  8.7km/h 9mph /  14.5km/h 54% 0in /  0.0mm
03:29 58.5 °F /  14.7 °C 41.9 °F /  5.5 °C 29.9in /  1012.6hPa NNO 5.2mph /  8.4km/h 8mph /  12.9km/h 54% 0in /  0.0mm
03:34 58.1 °F /  14.5 °C 41.9 °F /  5.5 °C 29.9in /  1012.6hPa NNE 2.9mph /  4.7km/h 6.9mph /  11.1km/h 54.7% 0in /  0.0mm
03:39 57.2 °F /  14 °C 41.9 °F /  5.5 °C 29.9in /  1012.7hPa NE 2.4mph /  3.9km/h 7mph /  11.3km/h 56.5% 0in /  0.0mm
03:44 56.7 °F /  13.7 °C 41.9 °F /  5.5 °C 29.9in /  1012.7hPa NE 2.8mph /  4.5km/h 5mph /  8km/h 57.8% 0in /  0.0mm
03:49 56.1 °F /  13.4 °C 42.1 °F /  5.6 °C 29.9in /  1012.7hPa ENE 2.9mph /  4.7km/h 4.6mph /  7.4km/h 58.9% 0in /  0.0mm
03:54 55.9 °F /  13.3 °C 42.3 °F /  5.7 °C 29.9in /  1012.7hPa Este 2.2mph /  3.5km/h 5mph /  8km/h 60% 0in /  0.0mm
03:59 55.8 °F /  13.2 °C 42.1 °F /  5.6 °C 29.9in /  1012.7hPa Este 2mph /  3.2km/h 3.1mph /  5km/h 59.9% 0in /  0.0mm
04:04 55.9 °F /  13.3 °C 41.9 °F /  5.5 °C 29.9in /  1012.7hPa Sur 1.5mph /  2.4km/h 5.4mph /  8.7km/h 59% 0in /  0.0mm
04:09 56.7 °F /  13.7 °C 42.1 °F /  5.6 °C 29.9in /  1012.7hPa SSO 1.4mph /  2.2km/h 6mph /  9.7km/h 58.2% 0in /  0.0mm
04:14 56.8 °F /  13.8 °C 42.1 °F /  5.6 °C 29.9in /  1012.6hPa SO 2.6mph /  4.2km/h 5.8mph /  9.3km/h 57.5% 0in /  0.0mm
04:19 57.2 °F /  14 °C 42.1 °F /  5.6 °C 29.9in /  1012.6hPa SO 2.9mph /  4.7km/h 6mph /  9.7km/h 57% 0in /  0.0mm
04:24 57.4 °F /  14.1 °C 41.9 °F /  5.5 °C 29.9in /  1012.6hPa SO 3.5mph /  5.6km/h 6mph /  9.7km/h 56.1% 0in /  0.0mm
04:29 57.4 °F /  14.1 °C 41.9 °F /  5.5 °C 29.9in /  1012.6hPa OSO 3.6mph /  5.8km/h 6.2mph /  10km/h 56.3% 0in /  0.0mm
04:34 57.4 °F /  14.1 °C 42.3 °F /  5.7 °C 29.9in /  1012.6hPa OSO 3.9mph /  6.3km/h 9.2mph /  14.8km/h 56.9% 0in /  0.0mm
04:39 57.6 °F /  14.2 °C 42.3 °F /  5.7 °C 29.9in /  1012.7hPa SO 4mph /  6.5km/h 9mph /  14.5km/h 56.7% 0in /  0.0mm
04:44 57.6 °F /  14.2 °C 42.1 °F /  5.6 °C 29.9in /  1012.7hPa SO 3.7mph /  5.9km/h 6mph /  9.7km/h 56% 0in /  0.0mm
04:49 57.6 °F /  14.2 °C 42.1 °F /  5.6 °C 29.9in /  1012.7hPa SO 3.6mph /  5.8km/h 5.8mph /  9.3km/h 56% 0in /  0.0mm
04:54 57.9 °F /  14.4 °C 42.3 °F /  5.7 °C 29.9in /  1012.7hPa OSO 3.2mph /  5.1km/h 6mph /  9.7km/h 56% 0in /  0.0mm
04:59 57.9 °F /  14.4 °C 42.1 °F /  5.6 °C 29.9in /  1012.6hPa SO 3.1mph /  5km/h 6mph /  9.7km/h 55.2% 0in /  0.0mm
05:04 57.9 °F /  14.4 °C 41.7 °F /  5.4 °C 29.9in /  1012.6hPa SO 3.5mph /  5.6km/h 6.2mph /  10km/h 55% 0in /  0.0mm
05:09 58.1 °F /  14.5 °C 42.1 °F /  5.6 °C 29.9in /  1012.7hPa OSO 3.6mph /  5.8km/h 6.9mph /  11.1km/h 55% 0in /  0.0mm
05:14 58.3 °F /  14.6 °C 42.1 °F /  5.6 °C 29.9in /  1012.7hPa Oeste 3.9mph /  6.3km/h 7mph /  11.3km/h 55% 0in /  0.0mm
05:19 57.9 °F /  14.4 °C 41.9 °F /  5.5 °C 29.9in /  1012.7hPa Oeste 4mph /  6.5km/h 5.2mph /  8.4km/h 55% 0in /  0.0mm
05:24 57.7 °F /  14.3 °C 42.1 °F /  5.6 °C 29.9in /  1012.7hPa Oeste 3.7mph /  5.9km/h 6.2mph /  10km/h 56% 0in /  0.0mm
05:29 57.7 °F /  14.3 °C 42.1 °F /  5.6 °C 29.9in /  1012.7hPa Oeste 3.6mph /  5.8km/h 6.9mph /  11.1km/h 56% 0in /  0.0mm
05:34 57.6 °F /  14.2 °C 42.1 °F /  5.6 °C 29.9in /  1012.7hPa OSO 4.2mph /  6.7km/h 8.1mph /  13km/h 56.1% 0in /  0.0mm
05:39 57.4 °F /  14.1 °C 42.3 °F /  5.7 °C 29.9in /  1012.8hPa OSO 4.3mph /  6.9km/h 8mph /  12.9km/h 57% 0in /  0.0mm
05:44 57 °F /  13.9 °C 42.1 °F /  5.6 °C 29.9in /  1012.8hPa OSO 4.3mph /  6.9km/h 9.2mph /  14.8km/h 57.4% 0in /  0.0mm
05:49 57 °F /  13.9 °C 42.3 °F /  5.7 °C 29.9in /  1012.8hPa Oeste 4.3mph /  6.9km/h 9mph /  14.5km/h 57.9% 0in /  0.0mm
05:54 56.8 °F /  13.8 °C 42.1 °F /  5.6 °C 29.9in /  1012.9hPa Oeste 4.7mph /  7.5km/h 8.1mph /  13km/h 58% 0in /  0.0mm
05:59 56.7 °F /  13.7 °C 42.1 °F /  5.6 °C 29.9in /  1012.9hPa OSO 4.7mph /  7.6km/h 11.5mph /  18.5km/h 58% 0in /  0.0mm
06:04 56.7 °F /  13.7 °C 42.1 °F /  5.6 °C 29.9in /  1012.9hPa Oeste 5.3mph /  8.5km/h 12mph /  19.3km/h 58% 0in /  0.0mm
06:09 56.7 °F /  13.7 °C 42.3 °F /  5.7 °C 29.9in /  1013.1hPa Oeste 5.4mph /  8.7km/h 9.2mph /  14.8km/h 58.5% 0in /  0.0mm
06:14 56.5 °F /  13.6 °C 42.3 °F /  5.7 °C 29.9in /  1013.1hPa Oeste 4.5mph /  7.3km/h 8mph /  12.9km/h 59% 0in /  0.0mm
06:19 56.5 °F /  13.6 °C 42.3 °F /  5.7 °C 29.9in /  1013.1hPa Oeste 4.3mph /  6.9km/h 5mph /  8km/h 59% 0in /  0.0mm
06:24 56.5 °F /  13.6 °C 42.3 °F /  5.7 °C 29.9in /  1013.2hPa ONO 3.2mph /  5.2km/h 5mph /  8km/h 59% 0in /  0.0mm
06:29 56.3 °F /  13.5 °C 42.1 °F /  5.6 °C 29.9in /  1013.2hPa ONO 2.9mph /  4.7km/h 5.2mph /  8.4km/h 59% 0in /  0.0mm
06:34 56.5 °F /  13.6 °C 42.3 °F /  5.7 °C 29.9in /  1013.2hPa Oeste 2.2mph /  3.5km/h 5.9mph /  9.5km/h 59% 0in /  0.0mm
06:39 56.5 °F /  13.6 °C 42.3 °F /  5.7 °C 29.9in /  1013.2hPa Oeste 2mph /  3.2km/h 6mph /  9.7km/h 58.7% 0in /  0.0mm
06:44 56.7 °F /  13.7 °C 42.3 °F /  5.7 °C 29.9in /  1013.2hPa OSO 2.9mph /  4.6km/h 6.2mph /  10km/h 58.7% 0in /  0.0mm
06:49 56.7 °F /  13.7 °C 41.9 °F /  5.5 °C 29.9in /  1013.2hPa Oeste 3.1mph /  5km/h 15.2mph /  24.5km/h 57.8% 0in /  0.0mm
06:54 57.6 °F /  14.2 °C 41.5 °F /  5.3 °C 29.9in /  1013.2hPa Oeste 5.3mph /  8.6km/h 15mph /  24.1km/h 55.1% 0in /  0.0mm
06:59 57.9 °F /  14.4 °C 41.4 °F /  5.2 °C 29.9in /  1013.2hPa Oeste 5.9mph /  9.5km/h 11.5mph /  18.5km/h 54% 0in /  0.0mm
07:04 58.1 °F /  14.5 °C 41.5 °F /  5.3 °C 29.9in /  1013.2hPa OSO 5.5mph /  8.8km/h 12mph /  19.3km/h 54% 0in /  0.0mm
07:09 58.3 °F /  14.6 °C 41.4 °F /  5.2 °C 29.9in /  1013.2hPa Oeste 5.4mph /  8.7km/h 11.8mph /  19km/h 53.2% 0in /  0.0mm
07:14 58.5 °F /  14.7 °C 41.2 °F /  5.1 °C 29.9in /  1013.2hPa OSO 5.8mph /  9.3km/h 12mph /  19.3km/h 52.6% 0in /  0.0mm
07:19 58.5 °F /  14.7 °C 41.4 °F /  5.2 °C 29.9in /  1013.2hPa Sur 5.9mph /  9.5km/h 6mph /  9.7km/h 53.1% 0in /  0.0mm
07:24 58.3 °F /  14.6 °C 41.7 °F /  5.4 °C 29.9in /  1013.3hPa Sur 4.4mph /  7.1km/h 6mph /  9.7km/h 54% 0in /  0.0mm
07:29 58.1 °F /  14.5 °C 41.5 °F /  5.3 °C 29.9in /  1013.3hPa SO 4mph /  6.5km/h 6mph /  9.7km/h 54.2% 0in /  0.0mm
07:34 57.9 °F /  14.4 °C 41.4 °F /  5.2 °C 29.9in /  1013.3hPa OSO 3.7mph /  5.9km/h 6mph /  9.7km/h 54% 0in /  0.0mm
07:39 57.9 °F /  14.4 °C 41.7 °F /  5.4 °C 29.9in /  1013.5hPa OSO 3.6mph /  5.8km/h 6mph /  9.7km/h 54.9% 0in /  0.0mm
07:44 57.7 °F /  14.3 °C 41.5 °F /  5.3 °C 29.9in /  1013.5hPa OSO 3.6mph /  5.8km/h 10.7mph /  17.2km/h 54.8% 0in /  0.0mm
07:49 57.7 °F /  14.3 °C 41.4 °F /  5.2 °C 29.9in /  1013.5hPa OSO 3.6mph /  5.8km/h 11mph /  17.7km/h 54% 0in /  0.0mm
07:54 57.7 °F /  14.3 °C 41.2 °F /  5.1 °C 29.9in /  1013.7hPa OSO 4.5mph /  7.2km/h 7mph /  11.3km/h 54% 0in /  0.0mm
07:59 58.1 °F /  14.5 °C 41 °F /  5 °C 29.9in /  1013.7hPa SO 4.7mph /  7.6km/h 10.4mph /  16.7km/h 53.2% 0in /  0.0mm
08:04 58.6 °F /  14.8 °C 40.8 °F /  4.9 °C 29.9in /  1013.7hPa OSO 4.7mph /  7.6km/h 11.5mph /  18.5km/h 51.7% 0in /  0.0mm
08:09 58.8 °F /  14.9 °C 40.8 °F /  4.9 °C 29.9in /  1013.8hPa SO 4.7mph /  7.6km/h 12mph /  19.3km/h 51.1% 0in /  0.0mm
08:14 59.2 °F /  15.1 °C 40.8 °F /  4.9 °C 29.9in /  1013.8hPa Oeste 4.7mph /  7.6km/h 9.2mph /  14.8km/h 50.7% 0in /  0.0mm
08:19 59.4 °F /  15.2 °C 40.8 °F /  4.9 °C 29.9in /  1013.8hPa Oeste 4.7mph /  7.6km/h 12.7mph /  20.4km/h 50.1% 0in /  0.0mm
08:24 59.5 °F /  15.3 °C 40.8 °F /  4.9 °C 29.9in /  1013.9hPa ONO 5.7mph /  9.1km/h 13mph /  20.9km/h 50% 0in /  0.0mm
08:29 59.7 °F /  15.4 °C 41 °F /  5 °C 29.9in /  1013.9hPa ONO 5.9mph /  9.5km/h 8mph /  12.9km/h 50% 0in /  0.0mm
08:34 59.7 °F /  15.4 °C 41 °F /  5 °C 29.9in /  1013.9hPa Oeste 4.4mph /  7.1km/h 8.1mph /  13km/h 50% 0in /  0.0mm
08:39 59.9 °F /  15.5 °C 41.2 °F /  5.1 °C 29.9in /  1014.0hPa Oeste 4mph /  6.5km/h 10.4mph /  16.7km/h 49.9% 0in /  0.0mm
08:44 59.9 °F /  15.5 °C 41.4 °F /  5.2 °C 29.9in /  1014.0hPa Oeste 5.1mph /  8.2km/h 10mph /  16.1km/h 50% 0in /  0.0mm
08:49 60.1 °F /  15.6 °C 41.4 °F /  5.2 °C 29.9in /  1014.0hPa Oeste 5.4mph /  8.7km/h 10mph /  16.1km/h 50% 0in /  0.0mm
08:54 59.9 °F /  15.5 °C 41.4 °F /  5.2 °C 29.9in /  1014.1hPa Oeste 5.8mph /  9.3km/h 10mph /  16.1km/h 50% 0in /  0.0mm
08:59 60.1 °F /  15.6 °C 41.4 °F /  5.2 °C 29.9in /  1014.1hPa Oeste 5.9mph /  9.5km/h 11.5mph /  18.5km/h 50% 0in /  0.0mm
09:04 60.3 °F /  15.7 °C 41.4 °F /  5.2 °C 29.9in /  1014.1hPa OSO 6.2mph /  9.9km/h 12mph /  19.3km/h 50% 0in /  0.0mm
09:09 60.3 °F /  15.7 °C 41.5 °F /  5.3 °C 30in /  1014.2hPa OSO 6.2mph /  10km/h 13mph /  20.9km/h 49.9% 0in /  0.0mm
09:14 60.4 °F /  15.8 °C 41.5 °F /  5.3 °C 30in /  1014.2hPa OSO 6.3mph /  10.2km/h 13mph /  20.9km/h 49.7% 0in /  0.0mm
09:19 60.6 °F /  15.9 °C 41.4 °F /  5.2 °C 30in /  1014.2hPa OSO 6.4mph /  10.3km/h 12.7mph /  20.4km/h 49% 0in /  0.0mm
09:24 61.2 °F /  16.2 °C 41.5 °F /  5.3 °C 30in /  1014.2hPa OSO 6mph /  9.7km/h 13.5mph /  21.7km/h 48.6% 0in /  0.0mm
09:29 61.3 °F /  16.3 °C 41.2 °F /  5.1 °C 30in /  1014.2hPa OSO 5.9mph /  9.5km/h 15.6mph /  25.1km/h 47.6% 0in /  0.0mm
09:34 61.5 °F /  16.4 °C 41 °F /  5 °C 30in /  1014.2hPa Oeste 6.2mph /  9.9km/h 16.1mph /  25.9km/h 47% 0in /  0.0mm
09:39 61.5 °F /  16.4 °C 41.2 °F /  5.1 °C 30in /  1014.5hPa OSO 6.2mph /  10km/h 16mph /  25.7km/h 47% 0in /  0.0mm
09:44 61.7 °F /  16.5 °C 41.2 °F /  5.1 °C 30in /  1014.5hPa OSO 6.3mph /  10.2km/h 14mph /  22.5km/h 47% 0in /  0.0mm
09:49 61.9 °F /  16.6 °C 41.4 °F /  5.2 °C 30in /  1014.5hPa OSO 6.4mph /  10.3km/h 14mph /  22.5km/h 47% 0in /  0.0mm
09:54 61.7 °F /  16.5 °C 41.4 °F /  5.2 °C 30in /  1014.6hPa OSO 6.3mph /  10.1km/h 14mph /  22.5km/h 47% 0in /  0.0mm
09:59 61.9 °F /  16.6 °C 41.4 °F /  5.2 °C 30in /  1014.6hPa Oeste 6.2mph /  10km/h 15.9mph /  25.6km/h 46.9% 0in /  0.0mm
10:04 61.9 °F /  16.6 °C 41 °F /  5 °C 30in /  1014.6hPa Oeste 7.4mph /  11.9km/h 17.3mph /  27.8km/h 46% 0in /  0.0mm
10:09 62.1 °F /  16.7 °C 41 °F /  5 °C 30in /  1014.7hPa ONO 7.6mph /  12.2km/h 18.4mph /  29.6km/h 46% 0in /  0.0mm
10:14 62.1 °F /  16.7 °C 41 °F /  5 °C 30in /  1014.7hPa Oeste 10.1mph /  16.3km/h 18.4mph /  29.6km/h 45.9% 0in /  0.0mm
10:19 62.1 °F /  16.7 °C 41 °F /  5 °C 30in /  1014.7hPa Oeste 10.7mph /  17.2km/h 18mph /  29km/h 46% 0in /  0.0mm
10:24 62.2 °F /  16.8 °C 41.2 °F /  5.1 °C 30in /  1014.7hPa Oeste 9.5mph /  15.3km/h 17mph /  27.4km/h 46% 0in /  0.0mm
10:29 62.4 °F /  16.9 °C 41 °F /  5 °C 30in /  1014.7hPa Oeste 9.2mph /  14.8km/h 16.1mph /  25.9km/h 45.2% 0in /  0.0mm
10:34 62.8 °F /  17.1 °C 41 °F /  5 °C 30in /  1014.7hPa Oeste 8.6mph /  13.9km/h 16mph /  25.7km/h 45.1% 0in /  0.0mm
10:39 63 °F /  17.2 °C 41 °F /  5 °C 30in /  1014.7hPa ONO 8.5mph /  13.7km/h 18.4mph /  29.6km/h 44.6% 0in /  0.0mm
10:44 63 °F /  17.2 °C 41.2 °F /  5.1 °C 30in /  1014.7hPa ONO 8.5mph /  13.7km/h 18mph /  29km/h 44.7% 0in /  0.0mm
10:49 63.1 °F /  17.3 °C 40.8 °F /  4.9 °C 30in /  1014.7hPa Oeste 8.5mph /  13.7km/h 19.7mph /  31.7km/h 44% 0in /  0.0mm
10:54 63.1 °F /  17.3 °C 40.8 °F /  4.9 °C 30in /  1014.7hPa ONO 9mph /  14.5km/h 20mph /  32.2km/h 44% 0in /  0.0mm
10:59 63.1 °F /  17.3 °C 40.8 °F /  4.9 °C 30in /  1014.6hPa ONO 9.2mph /  14.8km/h 18.5mph /  29.8km/h 44% 0in /  0.0mm
11:04 63.1 °F /  17.3 °C 41 °F /  5 °C 30in /  1014.6hPa ONO 10.4mph /  16.8km/h 19mph /  30.6km/h 44% 0in /  0.0mm
11:09 63.3 °F /  17.4 °C 40.6 °F /  4.8 °C 30in /  1014.6hPa ONO 10.7mph /  17.2km/h 23mph /  37km/h 43.4% 0in /  0.0mm
11:14 63.3 °F /  17.4 °C 40.5 °F /  4.7 °C 30in /  1014.5hPa ONO 10.7mph /  17.2km/h 23mph /  37km/h 43.2% 0in /  0.0mm
11:19 63.3 °F /  17.4 °C 40.6 °F /  4.8 °C 30in /  1014.5hPa ONO 10.7mph /  17.2km/h 22mph /  35.4km/h 43.3% 0in /  0.0mm
11:24 63.7 °F /  17.6 °C 41 °F /  5 °C 30in /  1014.5hPa ONO 12.9mph /  20.8km/h 20mph /  32.2km/h 43.4% 0in /  0.0mm
11:29 63.9 °F /  17.7 °C 40.5 °F /  4.7 °C 30in /  1014.2hPa ONO 13.5mph /  21.7km/h 25.3mph /  40.7km/h 42.2% 0in /  0.0mm
11:34 63.9 °F /  17.7 °C 40.1 °F /  4.5 °C 30in /  1014.2hPa Oeste 13.9mph /  22.4km/h 25mph /  40.2km/h 42% 0in /  0.0mm
11:39 63.9 °F /  17.7 °C 40.5 °F /  4.7 °C 30in /  1014.2hPa Oeste 14mph /  22.5km/h 25mph /  40.2km/h 42.2% 0in /  0.0mm
11:44 64.2 °F /  17.9 °C 41 °F /  5 °C 29.9in /  1013.9hPa Oeste 12.6mph /  20.3km/h 23mph /  37km/h 42.5% 0in /  0.0mm
11:49 64.4 °F /  18 °C 41 °F /  5 °C 29.9in /  1013.9hPa ONO 12.3mph /  19.8km/h 19mph /  30.6km/h 42.3% 0in /  0.0mm
11:54 64.6 °F /  18.1 °C 41.2 °F /  5.1 °C 29.9in /  1013.9hPa Oeste 11.1mph /  17.8km/h 19mph /  30.6km/h 42.3% 0in /  0.0mm
11:59 64.8 °F /  18.2 °C 41.2 °F /  5.1 °C 29.9in /  1013.7hPa ONO 10.7mph /  17.2km/h 18mph /  29km/h 42% 0in /  0.0mm
12:04 64.9 °F /  18.3 °C 41.4 °F /  5.2 °C 29.9in /  1013.7hPa Oeste 9.4mph /  15.2km/h 17mph /  27.4km/h 42% 0in /  0.0mm
12:09 65.1 °F /  18.4 °C 41.4 °F /  5.2 °C 29.9in /  1013.8hPa Oeste 9.2mph /  14.8km/h 16mph /  25.7km/h 42% 0in /  0.0mm
12:14 65.1 °F /  18.4 °C 41.2 °F /  5.1 °C 29.9in /  1013.8hPa Oeste 8.3mph /  13.4km/h 17.5mph /  28.2km/h 41.4% 0in /  0.0mm
12:19 65.3 °F /  18.5 °C 41 °F /  5 °C 29.9in /  1013.8hPa ONO 8.1mph /  13km/h 19.7mph /  31.7km/h 41% 0in /  0.0mm
12:24 65.5 °F /  18.6 °C 41.2 °F /  5.1 °C 29.9in /  1013.8hPa Oeste 9.8mph /  15.7km/h 20mph /  32.2km/h 40.9% 0in /  0.0mm
12:29 65.8 °F /  18.8 °C 41 °F /  5 °C 29.9in /  1013.7hPa Oeste 10.2mph /  16.4km/h 16.3mph /  26.2km/h 40.3% 0in /  0.0mm
12:34 65.8 °F /  18.8 °C 41 °F /  5 °C 29.9in /  1013.7hPa Oeste 9.4mph /  15.1km/h 17.5mph /  28.2km/h 40.3% 0in /  0.0mm
12:39 66 °F /  18.9 °C 41.2 °F /  5.1 °C 29.9in /  1013.7hPa ONO 9.2mph /  14.8km/h 21.9mph /  35.2km/h 40.2% 0in /  0.0mm
12:44 65.8 °F /  18.8 °C 40.8 °F /  4.9 °C 29.9in /  1013.4hPa ONO 10.4mph /  16.7km/h 22mph /  35.4km/h 39.8% 0in /  0.0mm
12:49 65.7 °F /  18.7 °C 40.8 °F /  4.9 °C 29.9in /  1013.4hPa ONO 10.7mph /  17.2km/h 20.1mph /  32.3km/h 40% 0in /  0.0mm
12:54 66 °F /  18.9 °C 41 °F /  5 °C 29.9in /  1013.4hPa ONO 11.2mph /  18.1km/h 21mph /  33.8km/h 40% 0in /  0.0mm
12:59 66 °F /  18.9 °C 40.8 °F /  4.9 °C 29.9in /  1013.1hPa ONO 11.4mph /  18.4km/h 23mph /  37km/h 39.8% 0in /  0.0mm
13:04 66.2 °F /  19 °C 41.2 °F /  5.1 °C 29.9in /  1013.1hPa ONO 12.3mph /  19.8km/h 23mph /  37km/h 40% 0in /  0.0mm
13:09 66.4 °F /  19.1 °C 41.2 °F /  5.1 °C 29.9in /  1013.1hPa ONO 12.5mph /  20.1km/h 21.3mph /  34.3km/h 39.8% 0in /  0.0mm
13:14 66.6 °F /  19.2 °C 40.8 °F /  4.9 °C 29.9in /  1012.9hPa ONO 10.6mph /  17.1km/h 21mph /  33.8km/h 39% 0in /  0.0mm
13:19 66.6 °F /  19.2 °C 40.6 °F /  4.8 °C 29.9in /  1012.9hPa Oeste 10.2mph /  16.4km/h 19mph /  30.6km/h 38.9% 0in /  0.0mm
13:24 66.7 °F /  19.3 °C 40.6 °F /  4.8 °C 29.9in /  1012.9hPa Oeste 11mph /  17.7km/h 21.3mph /  34.3km/h 38.6% 0in /  0.0mm
13:29 66.7 °F /  19.3 °C 40.3 °F /  4.6 °C 29.9in /  1012.7hPa Oeste 11.2mph /  18km/h 21mph /  33.8km/h 38% 0in /  0.0mm
13:34 66.9 °F /  19.4 °C 40.5 °F /  4.7 °C 29.9in /  1012.7hPa Oeste 11.7mph /  18.8km/h 18mph /  29km/h 38% 0in /  0.0mm
13:39 67.1 °F /  19.5 °C 40.6 °F /  4.8 °C 29.9in /  1012.7hPa ONO 11.8mph /  19km/h 16mph /  25.7km/h 38% 0in /  0.0mm
13:44 67.3 °F /  19.6 °C 40.8 °F /  4.9 °C 29.9in /  1012.5hPa Oeste 9.7mph /  15.6km/h 15mph /  24.1km/h 38% 0in /  0.0mm
13:49 67.3 °F /  19.6 °C 40.8 °F /  4.9 °C 29.9in /  1012.5hPa Oeste 9.2mph /  14.8km/h 13.8mph /  22.2km/h 38% 0in /  0.0mm
13:54 67.3 °F /  19.6 °C 40.6 °F /  4.8 °C 29.9in /  1012.5hPa Oeste 7.7mph /  12.4km/h 16.3mph /  26.2km/h 37.8% 0in /  0.0mm
13:59 67.3 °F /  19.6 °C 40.6 °F /  4.8 °C 29.9in /  1012.3hPa Oeste 7.4mph /  11.9km/h 16mph /  25.7km/h 37.8% 0in /  0.0mm
14:04 67.6 °F /  19.8 °C 40.8 °F /  4.9 °C 29.9in /  1012.3hPa Oeste 6.6mph /  10.6km/h 15mph /  24.1km/h 37.6% 0in /  0.0mm
14:09 67.8 °F /  19.9 °C 40.6 °F /  4.8 °C 29.9in /  1012.3hPa Oeste 6.4mph /  10.3km/h 16.1mph /  25.9km/h 37.1% 0in /  0.0mm
14:14 67.8 °F /  19.9 °C 40.8 °F /  4.9 °C 29.9in /  1012.3hPa ONO 6.4mph /  10.3km/h 16mph /  25.7km/h 37.3% 0in /  0.0mm
14:19 68 °F /  20 °C 40.8 °F /  4.9 °C 29.9in /  1012.3hPa ONO 6.4mph /  10.3km/h 11.5mph /  18.5km/h 37.2% 0in /  0.0mm
14:24 68.2 °F /  20.1 °C 40.8 °F /  4.9 °C 29.9in /  1012.3hPa NO 6.4mph /  10.3km/h 15mph /  24.1km/h 37% 0in /  0.0mm
14:29 68.2 °F /  20.1 °C 40.8 °F /  4.9 °C 29.9in /  1012.1hPa NO 6.4mph /  10.3km/h 16.3mph /  26.2km/h 37% 0in /  0.0mm
14:34 68.4 °F /  20.2 °C 41 °F /  5 °C 29.9in /  1012.1hPa ONO 7.8mph /  12.5km/h 16mph /  25.7km/h 36.9% 0in /  0.0mm
14:39 68.5 °F /  20.3 °C 40.8 °F /  4.9 °C 29.9in /  1012.1hPa Oeste 8.1mph /  13km/h 13mph /  20.9km/h 36.4% 0in /  0.0mm
14:44 68.5 °F /  20.3 °C 40.3 °F /  4.6 °C 29.9in /  1012.1hPa Oeste 5.8mph /  9.3km/h 12.7mph /  20.4km/h 35.8% 0in /  0.0mm
14:49 68.7 °F /  20.4 °C 40.1 °F /  4.5 °C 29.9in /  1012.1hPa ONO 5.2mph /  8.4km/h 14mph /  22.5km/h 35.2% 0in /  0.0mm
14:54 68.7 °F /  20.4 °C 39.2 °F /  4 °C 29.9in /  1012.1hPa Oeste 8mph /  12.9km/h 14mph /  22.5km/h 34.1% 0in /  0.0mm
14:59 68.7 °F /  20.4 °C 39.4 °F /  4.1 °C 29.9in /  1012.0hPa ONO 8.7mph /  14km/h 13mph /  20.9km/h 34.2% 0in /  0.0mm
15:04 68.9 °F /  20.5 °C 39.4 °F /  4.1 °C 29.9in /  1012.0hPa ONO 7.6mph /  12.3km/h 17.3mph /  27.8km/h 34% 0in /  0.0mm
15:09 68.9 °F /  20.5 °C 38.7 °F /  3.7 °C 29.9in /  1012.0hPa Oeste 7.4mph /  11.9km/h 17mph /  27.4km/h 33.2% 0in /  0.0mm
15:14 69.1 °F /  20.6 °C 39.2 °F /  4 °C 29.9in /  1011.7hPa ONO 8.3mph /  13.3km/h 18.4mph /  29.6km/h 33.5% 0in /  0.0mm
15:19 69.1 °F /  20.6 °C 37.9 °F /  3.3 °C 29.9in /  1011.7hPa ONO 8.5mph /  13.7km/h 20.7mph /  33.3km/h 32.1% 0in /  0.0mm
15:24 68.9 °F /  20.5 °C 37.9 °F /  3.3 °C 29.9in /  1011.7hPa ONO 10.7mph /  17.2km/h 21mph /  33.8km/h 32.1% 0in /  0.0mm
15:29 68.9 °F /  20.5 °C 38.7 °F /  3.7 °C 29.9in /  1011.7hPa ONO 11.2mph /  18km/h 16.3mph /  26.2km/h 33% 0in /  0.0mm
15:34 68.9 °F /  20.5 °C 38.7 °F /  3.7 °C 29.9in /  1011.7hPa ONO 9.6mph /  15.5km/h 16mph /  25.7km/h 33% 0in /  0.0mm
15:39 69.1 °F /  20.6 °C 38.8 °F /  3.8 °C 29.9in /  1011.7hPa ONO 9.2mph /  14.8km/h 21.9mph /  35.2km/h 33% 0in /  0.0mm
15:44 69.1 °F /  20.6 °C 38.7 °F /  3.7 °C 29.9in /  1011.7hPa ONO 9.8mph /  15.8km/h 22mph /  35.4km/h 33% 0in /  0.0mm
15:49 68.7 °F /  20.4 °C 38.3 °F /  3.5 °C 29.9in /  1011.7hPa ONO 10mph /  16.1km/h 20mph /  32.2km/h 32.9% 0in /  0.0mm
15:54 68.5 °F /  20.3 °C 38.5 °F /  3.6 °C 29.9in /  1011.8hPa Oeste 11.1mph /  17.9km/h 18mph /  29km/h 33% 0in /  0.0mm
15:59 68.7 °F /  20.4 °C 38.3 °F /  3.5 °C 29.9in /  1011.8hPa ONO 11.4mph /  18.4km/h 16.1mph /  25.9km/h 33% 0in /  0.0mm
16:04 68.7 °F /  20.4 °C 39 °F /  3.9 °C 29.9in /  1011.8hPa ONO 9.1mph /  14.7km/h 16mph /  25.7km/h 33.8% 0in /  0.0mm
16:09 68.7 °F /  20.4 °C 39 °F /  3.9 °C 29.9in /  1011.9hPa Oeste 8.7mph /  14km/h 15mph /  24.1km/h 33.8% 0in /  0.0mm
16:14 68.7 °F /  20.4 °C 38.8 °F /  3.8 °C 29.9in /  1011.9hPa Oeste 8.2mph /  13.2km/h 18.4mph /  29.6km/h 33.6% 0in /  0.0mm
16:19 68.7 °F /  20.4 °C 39.2 °F /  4 °C 29.9in /  1011.9hPa Oeste 8.1mph /  13km/h 18mph /  29km/h 34% 0in /  0.0mm
16:24 68.5 °F /  20.3 °C 38.8 °F /  3.8 °C 29.9in /  1011.9hPa ONO 9.6mph /  15.5km/h 17.5mph /  28.2km/h 33.9% 0in /  0.0mm
16:29 68.4 °F /  20.2 °C 38.8 °F /  3.8 °C 29.9in /  1011.9hPa ONO 10mph /  16.1km/h 17.3mph /  27.8km/h 34% 0in /  0.0mm
16:34 68.4 °F /  20.2 °C 38.8 °F /  3.8 °C 29.9in /  1011.9hPa ONO 9.8mph /  15.7km/h 16mph /  25.7km/h 34% 0in /  0.0mm
16:39 68.4 °F /  20.2 °C 39 °F /  3.9 °C 29.9in /  1012.0hPa ONO 9.7mph /  15.6km/h 19mph /  30.6km/h 34% 0in /  0.0mm
16:44 68.4 °F /  20.2 °C 38.8 °F /  3.8 °C 29.9in /  1012.0hPa ONO 8.9mph /  14.3km/h 19mph /  30.6km/h 34% 0in /  0.0mm
16:49 68.2 °F /  20.1 °C 38.8 °F /  3.8 °C 29.9in /  1012.0hPa ONO 8.7mph /  14km/h 16.1mph /  25.9km/h 34.1% 0in /  0.0mm
16:54 68 °F /  20 °C 39 °F /  3.9 °C 29.9in /  1012.0hPa ONO 9.1mph /  14.7km/h 16.1mph /  25.9km/h 34.7% 0in /  0.0mm
16:59 67.8 °F /  19.9 °C 39.2 °F /  4 °C 29.9in /  1011.9hPa ONO 9.2mph /  14.8km/h 16mph /  25.7km/h 35% 0in /  0.0mm
17:04 67.8 °F /  19.9 °C 39.2 °F /  4 °C 29.9in /  1011.9hPa NO 8.3mph /  13.3km/h 15mph /  24.1km/h 35% 0in /  0.0mm
17:09 67.8 °F /  19.9 °C 39.2 °F /  4 °C 29.9in /  1011.9hPa ONO 8.1mph /  13km/h 15mph /  24.1km/h 35.1% 0in /  0.0mm
17:14 67.8 °F /  19.9 °C 39.4 °F /  4.1 °C 29.9in /  1011.8hPa Oeste 7.1mph /  11.5km/h 14mph /  22.5km/h 35.3% 0in /  0.0mm
17:19 67.8 °F /  19.9 °C 39.7 °F /  4.3 °C 29.9in /  1011.8hPa ONO 6.9mph /  11.1km/h 11mph /  17.7km/h 35.9% 0in /  0.0mm
17:24 67.6 °F /  19.8 °C 39.7 °F /  4.3 °C 29.9in /  1011.8hPa ONO 5.7mph /  9.2km/h 12.7mph /  20.4km/h 36% 0in /  0.0mm
17:29 67.6 °F /  19.8 °C 39.7 °F /  4.3 °C 29.9in /  1011.8hPa ONO 5.4mph /  8.7km/h 15.9mph /  25.6km/h 36% 0in /  0.0mm
17:34 67.5 °F /  19.7 °C 39.9 °F /  4.4 °C 29.9in /  1011.8hPa ONO 7.1mph /  11.5km/h 16.1mph /  25.9km/h 36.4% 0in /  0.0mm
17:39 67.3 °F /  19.6 °C 40.1 °F /  4.5 °C 29.9in /  1011.9hPa Oeste 7.6mph /  12.2km/h 16mph /  25.7km/h 37% 0in /  0.0mm
17:44 67.1 °F /  19.5 °C 39.9 °F /  4.4 °C 29.9in /  1011.9hPa Oeste 6.6mph /  10.7km/h 12mph /  19.3km/h 37% 0in /  0.0mm
17:49 66.9 °F /  19.4 °C 39.9 °F /  4.4 °C 29.9in /  1011.9hPa Oeste 6.4mph /  10.3km/h 12mph /  19.3km/h 37.1% 0in /  0.0mm
17:54 66.7 °F /  19.3 °C 40.3 °F /  4.6 °C 29.9in /  1012.1hPa Oeste 6mph /  9.7km/h 8mph /  12.9km/h 38% 0in /  0.0mm
17:59 66.6 °F /  19.2 °C 40.1 °F /  4.5 °C 29.9in /  1012.1hPa Oeste 5.9mph /  9.5km/h 7mph /  11.3km/h 38.1% 0in /  0.0mm
18:04 66.4 °F /  19.1 °C 40.3 °F /  4.6 °C 29.9in /  1012.1hPa Oeste 4.3mph /  7km/h 11.5mph /  18.5km/h 38.3% 0in /  0.0mm
18:09 66 °F /  18.9 °C 40.5 °F /  4.7 °C 29.9in /  1012.3hPa Oeste 4mph /  6.5km/h 12mph /  19.3km/h 39% 0in /  0.0mm
18:14 65.8 °F /  18.8 °C 40.3 °F /  4.6 °C 29.9in /  1012.3hPa Oeste 5.2mph /  8.3km/h 10mph /  16.1km/h 39% 0in /  0.0mm
18:19 65.8 °F /  18.8 °C 40.1 °F /  4.5 °C 29.9in /  1012.3hPa ONO 5.4mph /  8.7km/h 10.4mph /  16.7km/h 38.9% 0in /  0.0mm
18:24 65.8 °F /  18.8 °C 40.1 °F /  4.5 °C 29.9in /  1012.4hPa Oeste 5.2mph /  8.4km/h 10mph /  16.1km/h 38.9% 0in /  0.0mm
18:29 65.7 °F /  18.7 °C 40.1 °F /  4.5 °C 29.9in /  1012.4hPa Oeste 5.2mph /  8.4km/h 6mph /  9.7km/h 39% 0in /  0.0mm
18:34 65.5 °F /  18.6 °C 40.3 °F /  4.6 °C 29.9in /  1012.4hPa Oeste 4.2mph /  6.8km/h 6.9mph /  11.1km/h 39.6% 0in /  0.0mm
18:39 65.3 °F /  18.5 °C 40.3 °F /  4.6 °C 29.9in /  1012.6hPa OSO 4mph /  6.5km/h 8.1mph /  13km/h 39.9% 0in /  0.0mm
18:44 65.1 °F /  18.4 °C 40.1 °F /  4.5 °C 29.9in /  1012.6hPa Oeste 4mph /  6.5km/h 8mph /  12.9km/h 40% 0in /  0.0mm
18:49 64.9 °F /  18.3 °C 39.9 °F /  4.4 °C 29.9in /  1012.6hPa Oeste 4mph /  6.5km/h 7mph /  11.3km/h 40% 0in /  0.0mm
18:54 64.8 °F /  18.2 °C 39.9 °F /  4.4 °C 29.9in /  1012.7hPa OSO 4.2mph /  6.8km/h 8.7mph /  14km/h 39.9% 0in /  0.0mm
18:59 64.8 °F /  18.2 °C 39.7 °F /  4.3 °C 29.9in /  1012.7hPa OSO 4.3mph /  6.9km/h 9.2mph /  14.8km/h 39.8% 0in /  0.0mm
19:04 64.8 °F /  18.2 °C 39.9 °F /  4.4 °C 29.9in /  1012.7hPa OSO 4.7mph /  7.5km/h 8mph /  12.9km/h 40% 0in /  0.0mm
19:09 64.6 °F /  18.1 °C 39.6 °F /  4.2 °C 29.9in /  1012.9hPa OSO 4.7mph /  7.6km/h 9.2mph /  14.8km/h 39.9% 0in /  0.0mm
19:14 64.6 °F /  18.1 °C 39.4 °F /  4.1 °C 29.9in /  1012.9hPa OSO 4.2mph /  6.7km/h 10.4mph /  16.7km/h 39.6% 0in /  0.0mm
19:19 64.6 °F /  18.1 °C 39 °F /  3.9 °C 29.9in /  1012.9hPa SO 4mph /  6.5km/h 10mph /  16.1km/h 39% 0in /  0.0mm
19:24 64.6 °F /  18.1 °C 39 °F /  3.9 °C 29.9in /  1012.9hPa SO 4.5mph /  7.3km/h 9.2mph /  14.8km/h 39% 0in /  0.0mm
19:29 64.6 °F /  18.1 °C 39 °F /  3.9 °C 29.9in /  1012.9hPa OSO 4.7mph /  7.6km/h 9.2mph /  14.8km/h 39.2% 0in /  0.0mm
19:34 64.2 °F /  17.9 °C 39.4 °F /  4.1 °C 29.9in /  1012.9hPa SO 5.3mph /  8.5km/h 10.7mph /  17.2km/h 40% 0in /  0.0mm
19:39 64 °F /  17.8 °C 39.7 °F /  4.3 °C 29.9in /  1013.2hPa SSO 5.4mph /  8.7km/h 11mph /  17.7km/h 41% 0in /  0.0mm
19:44 63.9 °F /  17.7 °C 39.7 °F /  4.3 °C 29.9in /  1013.2hPa SO 6mph /  9.7km/h 9mph /  14.5km/h 41% 0in /  0.0mm
19:49 63.9 °F /  17.7 °C 40.3 °F /  4.6 °C 29.9in /  1013.2hPa SO 6.2mph /  10km/h 8.5mph /  13.7km/h 42% 0in /  0.0mm
19:54 63.7 °F /  17.6 °C 40.1 °F /  4.5 °C 29.9in /  1013.3hPa SSO 5mph /  8km/h 9mph /  14.5km/h 42.2% 0in /  0.0mm
19:59 63.1 °F /  17.3 °C 40.3 °F /  4.6 °C 29.9in /  1013.3hPa SSO 4.7mph /  7.6km/h 9.7mph /  15.6km/h 43% 0in /  0.0mm
20:04 63 °F /  17.2 °C 40.5 °F /  4.7 °C 29.9in /  1013.3hPa SSO 5.3mph /  8.5km/h 10mph /  16.1km/h 43.6% 0in /  0.0mm
20:09 62.6 °F /  17 °C 40.5 °F /  4.7 °C 29.9in /  1013.5hPa SSO 5.4mph /  8.7km/h 9mph /  14.5km/h 44% 0in /  0.0mm
20:14 62.4 °F /  16.9 °C 40.3 °F /  4.6 °C 29.9in /  1013.5hPa SSO 5.8mph /  9.4km/h 8.1mph /  13km/h 44% 0in /  0.0mm
20:19 62.2 °F /  16.8 °C 40.3 °F /  4.6 °C 29.9in /  1013.5hPa SSO 5.9mph /  9.5km/h 8.5mph /  13.7km/h 44.3% 0in /  0.0mm
20:24 62.2 °F /  16.8 °C 40.5 °F /  4.7 °C 29.9in /  1013.5hPa SSO 4.9mph /  7.9km/h 9mph /  14.5km/h 44.9% 0in /  0.0mm
20:29 62.1 °F /  16.7 °C 40.5 °F /  4.7 °C 29.9in /  1013.5hPa SSO 4.7mph /  7.6km/h 7mph /  11.3km/h 45% 0in /  0.0mm
20:34 61.9 °F /  16.6 °C 40.3 °F /  4.6 °C 29.9in /  1013.5hPa SSO 4.7mph /  7.6km/h 8.1mph /  13km/h 45% 0in /  0.0mm
20:39 61.9 °F /  16.6 °C 40.3 °F /  4.6 °C 29.9in /  1013.5hPa SSO 4.7mph /  7.6km/h 8.1mph /  13km/h 45% 0in /  0.0mm
20:44 61.7 °F /  16.5 °C 40.1 °F /  4.5 °C 29.9in /  1013.5hPa SSO 5.1mph /  8.2km/h 8mph /  12.9km/h 45% 0in /  0.0mm
20:49 61.5 °F /  16.4 °C 39.9 °F /  4.4 °C 29.9in /  1013.5hPa SO 5.2mph /  8.4km/h 8.5mph /  13.7km/h 45% 0in /  0.0mm
20:54 61.5 °F /  16.4 °C 39.9 °F /  4.4 °C 29.9in /  1013.5hPa SO 5.3mph /  8.6km/h 9.2mph /  14.8km/h 45% 0in /  0.0mm
20:59 61.5 °F /  16.4 °C 39.9 °F /  4.4 °C 29.9in /  1013.5hPa SO 5.4mph /  8.7km/h 9mph /  14.5km/h 45% 0in /  0.0mm
21:04 61.5 °F /  16.4 °C 39.9 °F /  4.4 °C 29.9in /  1013.5hPa SO 5.4mph /  8.7km/h 9mph /  14.5km/h 45% 0in /  0.0mm
21:09 61.3 °F /  16.3 °C 39.7 °F /  4.3 °C 29.9in /  1013.5hPa SO 5.4mph /  8.7km/h 9.2mph /  14.8km/h 45% 0in /  0.0mm
21:14 61.3 °F /  16.3 °C 39.7 °F /  4.3 °C 29.9in /  1013.5hPa SO 5.4mph /  8.7km/h 9.7mph /  15.6km/h 45% 0in /  0.0mm
21:19 61.2 °F /  16.2 °C 40.1 °F /  4.5 °C 29.9in /  1013.5hPa SO 5.4mph /  8.7km/h 10mph /  16.1km/h 45.8% 0in /  0.0mm
21:24 61 °F /  16.1 °C 39.9 °F /  4.4 °C 29.9in /  1013.5hPa SSO 4.8mph /  7.8km/h 8.1mph /  13km/h 46% 0in /  0.0mm
21:29 61 °F /  16.1 °C 39.9 °F /  4.4 °C 29.9in /  1013.5hPa SSO 4.7mph /  7.6km/h 8.1mph /  13km/h 45.9% 0in /  0.0mm
21:34 61 °F /  16.1 °C 39.9 °F /  4.4 °C 29.9in /  1013.5hPa Sur 4.7mph /  7.6km/h 8.1mph /  13km/h 45.9% 0in /  0.0mm
21:39 61 °F /  16.1 °C 39.9 °F /  4.4 °C 29.9in /  1013.5hPa Sur 4.7mph /  7.6km/h 8mph /  12.9km/h 46% 0in /  0.0mm
21:44 60.6 °F /  15.9 °C 40.3 °F /  4.6 °C 29.9in /  1013.5hPa SE 4.4mph /  7.1km/h 7mph /  11.3km/h 46.8% 0in /  0.0mm
21:49 60.4 °F /  15.8 °C 40.6 °F /  4.8 °C 29.9in /  1013.5hPa Oeste 4.3mph /  6.9km/h 5.2mph /  8.4km/h 48.1% 0in /  0.0mm
21:54 59.5 °F /  15.3 °C 40.8 °F /  4.9 °C 29.9in /  1013.7hPa North 3.2mph /  5.1km/h 5mph /  8km/h 49.8% 0in /  0.0mm
21:59 59 °F /  15 °C 40.6 °F /  4.8 °C 29.9in /  1013.7hPa NNO 2.9mph /  4.7km/h 5mph /  8km/h 50.7% 0in /  0.0mm
22:04 58.6 °F /  14.8 °C 40.6 °F /  4.8 °C 29.9in /  1013.7hPa NO 2.1mph /  3.4km/h 3.6mph /  5.8km/h 51% 0in /  0.0mm
22:09 58.6 °F /  14.8 °C 40.5 °F /  4.7 °C 29.9in /  1013.7hPa Oeste 2mph /  3.2km/h 4mph /  6.4km/h 50.9% 0in /  0.0mm
22:14 58.8 °F /  14.9 °C 40.3 °F /  4.6 °C 29.9in /  1013.7hPa OSO 2mph /  3.2km/h 6.9mph /  11.1km/h 50.2% 0in /  0.0mm
22:19 59.2 °F /  15.1 °C 40.5 °F /  4.7 °C 29.9in /  1013.7hPa Oeste 2mph /  3.2km/h 13.7mph /  22km/h 49.8% 0in /  0.0mm
22:24 59.4 °F /  15.2 °C 40.3 °F /  4.6 °C 29.9in /  1013.7hPa OSO 4.2mph /  6.7km/h 14mph /  22.5km/h 49% 0in /  0.0mm
22:29 59.4 °F /  15.2 °C 40.1 °F /  4.5 °C 29.9in /  1013.6hPa OSO 4.7mph /  7.6km/h 14mph /  22.5km/h 48.6% 0in /  0.0mm
22:34 59.5 °F /  15.3 °C 39.9 °F /  4.4 °C 29.9in /  1013.6hPa OSO 5.7mph /  9.1km/h 10mph /  16.1km/h 48% 0in /  0.0mm
22:39 59.7 °F /  15.4 °C 39.7 °F /  4.3 °C 29.9in /  1013.6hPa OSO 5.9mph /  9.5km/h 11.5mph /  18.5km/h 47.3% 0in /  0.0mm
22:44 60.1 °F /  15.6 °C 39.7 °F /  4.3 °C 29.9in /  1013.6hPa SO 5.9mph /  9.5km/h 12mph /  19.3km/h 47% 0in /  0.0mm
22:49 59.9 °F /  15.5 °C 39.9 °F /  4.4 °C 29.9in /  1013.6hPa SO 5.9mph /  9.5km/h 8mph /  12.9km/h 47.6% 0in /  0.0mm
22:54 59.9 °F /  15.5 °C 40.1 °F /  4.5 °C 29.9in /  1013.7hPa Sur 4.4mph /  7.1km/h 7mph /  11.3km/h 48% 0in /  0.0mm
22:59 59.7 °F /  15.4 °C 40.1 °F /  4.5 °C 29.9in /  1013.7hPa SSE 4mph /  6.5km/h 6mph /  9.7km/h 48% 0in /  0.0mm
23:04 59.5 °F /  15.3 °C 40.1 °F /  4.5 °C 29.9in /  1013.7hPa SE 3.7mph /  5.9km/h 6.4mph /  10.3km/h 48.4% 0in /  0.0mm
23:09 59.2 °F /  15.1 °C 40.3 °F /  4.6 °C 29.9in /  1013.7hPa SSE 3.6mph /  5.8km/h 8.1mph /  13km/h 49.4% 0in /  0.0mm
23:14 58.6 °F /  14.8 °C 40.1 °F /  4.5 °C 29.9in /  1013.7hPa SSE 4.5mph /  7.2km/h 8mph /  12.9km/h 50% 0in /  0.0mm
23:19 58.5 °F /  14.7 °C 40.3 °F /  4.6 °C 29.9in /  1013.7hPa SSO 4.7mph /  7.6km/h 7mph /  11.3km/h 50.8% 0in /  0.0mm
23:24 58.3 °F /  14.6 °C 40.3 °F /  4.6 °C 29.9in /  1013.7hPa SSO 3.8mph /  6.1km/h 6mph /  9.7km/h 51% 0in /  0.0mm
23:29 58.3 °F /  14.6 °C 40.3 °F /  4.6 °C 29.9in /  1013.7hPa SSO 3.6mph /  5.8km/h 6mph /  9.7km/h 51% 0in /  0.0mm
23:34 58.5 °F /  14.7 °C 40.3 °F /  4.6 °C 29.9in /  1013.7hPa SO 3.9mph /  6.3km/h 6.2mph /  10km/h 51% 0in /  0.0mm
23:39 58.5 °F /  14.7 °C 40.5 °F /  4.7 °C 29.9in /  1013.7hPa SSO 4mph /  6.5km/h 8.5mph /  13.7km/h 51% 0in /  0.0mm
23:44 58.5 °F /  14.7 °C 40.5 °F /  4.7 °C 29.9in /  1013.6hPa SO 4.2mph /  6.8km/h 9mph /  14.5km/h 51% 0in /  0.0mm
23:49 58.5 °F /  14.7 °C 40.5 °F /  4.7 °C 29.9in /  1013.6hPa SO 4.3mph /  6.9km/h 5mph /  8km/h 51% 0in /  0.0mm
23:54 58.3 °F /  14.6 °C 40.3 °F /  4.6 °C 29.9in /  1013.6hPa SSO 3.2mph /  5.1km/h 5.9mph /  9.5km/h 51% 0in /  0.0mm
23:59 58.3 °F /  14.6 °C 40.3 °F /  4.6 °C 29.9in /  1013.6hPa Sur 2.9mph /  4.7km/h 6.2mph /  10km/h 51% 0in /  0.0mm
Murcia-Puente Tocinos, España
Compliments of Weather Underground - 3 mb

La estación de MeteoMurcia.com, publica sus datos en los siguientes proyectos:

Weather Underground PWS IMURCIAP2 Meteoclimatic www.awekas.at

W3Counter
Web Analytics